Hornblower Infinity — WDF9892 — position and weather

sailwx.info

Track history (hours):
 
Tides and Currents Weather Stations Pressure Air Temp Water Temp Dewpoint Dewpoint Depression Visibility Wind Speed Wind Dir Waves Ship Positions

Hornblower Infinity

Owner: Hornblower Yachts Inc., San Francisco, CA. More information available from US FCC via Universal Licensing System and Coast Guard Vessel Documentation Center.

Last reported at 2018-Jun-23 03:16 UTC. Time now 2018-Jun-23 11:40 UTC.
Position N 40°44' W 074°01'.

Length 57 m; draft 4.5 m.

Type: Passenger vessel. MMSI: 367509910.

Date/timePositionNaut miles runAvg speedWind from/ knotsBaromVisibWave heightAir tempDewpointWater temp
2018-Jun-23 03:16N 40°44' W 074°01'1 4.3
2018-Jun-23 03:00N 40°43' W 074°01'1 2.3
2018-Jun-23 02:28N 40°42' W 073°60'1 2.3
2018-Jun-23 02:01N 40°42' W 074°01'2 1.3
2018-Jun-23 00:26N 40°44' W 074°01'1 1.5
2018-Jun-23 00:00N 40°43' W 074°01'1 3.0
2018-Jun-22 23:30N 40°42' W 074°02'1 1.9
2018-Jun-22 23:00N 40°43' W 074°01'1 0.0
2018-Jun-22 01:35N 40°44' W 074°01'0 4.5
2018-Jun-22 01:30N 40°43' W 074°01'2 4.7
2018-Jun-22 01:00N 40°41' W 074°03'2 4.3
2018-Jun-22 00:29N 40°42' W 073°60'1 1.2
2018-Jun-22 00:00N 40°42' W 074°01'3 6.4
2018-Jun-21 23:30N 40°45' W 074°01'1 0.1
2018-Jun-21 02:42N 40°44' W 074°01'1 5.5
2018-Jun-21 02:30N 40°43' W 074°01'1 2.8
2018-Jun-21 02:00N 40°42' W 074°02'1 2.5
2018-Jun-21 01:30N 40°42' W 074°00'  
2018-Jun-17 18:23N 40°44' W 074°01'1 3.6
2018-Jun-17 18:00N 40°43' W 074°01'2 2.7
2018-Jun-17 17:26N 40°42' W 074°02'1 2.6
2018-Jun-17 17:00N 40°43' W 074°01'1 0.1
2018-Jun-17 05:34N 40°44' W 074°01'0 4.5
2018-Jun-17 05:27N 40°44' W 074°01'1 2.2
2018-Jun-17 04:58N 40°43' W 074°01'0 0.4
2018-Jun-17 04:30N 40°43' W 074°01'1 0.1
2018-Jun-16 18:13N 40°44' W 074°01'1 5.7
2018-Jun-16 18:00N 40°43' W 074°01'1 1.8
2018-Jun-16 17:30N 40°42' W 074°02'1 1.8
2018-Jun-16 17:00N 40°43' W 074°01'1 0.1
2018-Jun-16 05:37N 40°44' W 074°01'1 4.8
2018-Jun-16 05:29N 40°43' W 074°01'2 3.2
2018-Jun-16 05:00N 40°42' W 074°01'1 2.0
2018-Jun-16 04:31N 40°43' W 074°01'2 4.8
2018-Jun-16 04:00N 40°45' W 074°01'1 0.0
2018-Jun-15 01:35N 40°44' W 074°01'1 4.5
2018-Jun-15 01:28N 40°44' W 074°01'2 5.3
2018-Jun-15 01:00N 40°41' W 074°02'2 4.2
2018-Jun-15 00:30N 40°42' W 073°60'1 3.0
2018-Jun-15 00:00N 40°43' W 074°01'  
Track history (hours):
 
Tides and Currents Weather Stations Pressure Air Temp Water Temp Dewpoint Dewpoint Depression Visibility Wind Speed Wind Dir Waves Ship Positions

Hornblower Infinity

Owner: Hornblower Yachts Inc., San Francisco, CA. More information available from US FCC via Universal Licensing System and Coast Guard Vessel Documentation Center.

Last reported at 2018-Jun-23 03:16 UTC. Time now 2018-Jun-23 11:40 UTC.
Position N 40°44' W 074°01'.

Length 57 m; draft 4.5 m.

Type: Passenger vessel. MMSI: 367509910.

Date/timePositionNaut miles runAvg speedWind from/ knotsBaromVisibWave heightAir tempDewpointWater temp
2018-Jun-23 03:16N 40°44' W 074°01'1 4.3
2018-Jun-23 03:00N 40°43' W 074°01'1 2.3
2018-Jun-23 02:28N 40°42' W 073°60'1 2.3
2018-Jun-23 02:01N 40°42' W 074°01'2 1.3
2018-Jun-23 00:26N 40°44' W 074°01'1 1.5
2018-Jun-23 00:00N 40°43' W 074°01'1 3.0
2018-Jun-22 23:30N 40°42' W 074°02'1 1.9
2018-Jun-22 23:00N 40°43' W 074°01'1 0.0
2018-Jun-22 01:35N 40°44' W 074°01'0 4.5
2018-Jun-22 01:30N 40°43' W 074°01'2 4.7
2018-Jun-22 01:00N 40°41' W 074°03'2 4.3
2018-Jun-22 00:29N 40°42' W 073°60'1 1.2
2018-Jun-22 00:00N 40°42' W 074°01'3 6.4
2018-Jun-21 23:30N 40°45' W 074°01'1 0.1
2018-Jun-21 02:42N 40°44' W 074°01'1 5.5
2018-Jun-21 02:30N 40°43' W 074°01'1 2.8
2018-Jun-21 02:00N 40°42' W 074°02'1 2.5
2018-Jun-21 01:30N 40°42' W 074°00'  
2018-Jun-17 18:23N 40°44' W 074°01'1 3.6
2018-Jun-17 18:00N 40°43' W 074°01'2 2.7
2018-Jun-17 17:26N 40°42' W 074°02'1 2.6
2018-Jun-17 17:00N 40°43' W 074°01'1 0.1
2018-Jun-17 05:34N 40°44' W 074°01'0 4.5
2018-Jun-17 05:27N 40°44' W 074°01'1 2.2
2018-Jun-17 04:58N 40°43' W 074°01'0 0.4
2018-Jun-17 04:30N 40°43' W 074°01'1 0.1
2018-Jun-16 18:13N 40°44' W 074°01'1 5.7
2018-Jun-16 18:00N 40°43' W 074°01'1 1.8
2018-Jun-16 17:30N 40°42' W 074°02'1 1.8
2018-Jun-16 17:00N 40°43' W 074°01'1 0.1
2018-Jun-16 05:37N 40°44' W 074°01'1 4.8
2018-Jun-16 05:29N 40°43' W 074°01'2 3.2
2018-Jun-16 05:00N 40°42' W 074°01'1 2.0
2018-Jun-16 04:31N 40°43' W 074°01'2 4.8
2018-Jun-16 04:00N 40°45' W 074°01'1 0.0
2018-Jun-15 01:35N 40°44' W 074°01'1 4.5
2018-Jun-15 01:28N 40°44' W 074°01'2 5.3
2018-Jun-15 01:00N 40°41' W 074°02'2 4.2
2018-Jun-15 00:30N 40°42' W 073°60'1 3.0
2018-Jun-15 00:00N 40°43' W 074°01'  

Dump ship's entire track history